Time;durP1;ratioP1;P1;durP2;ratioP2;P2;SDS_P1;SDS_P2;PMS_P1;PMS_P2;Temp;Humidity;BMP_temperature;BMP_pressure;BME280_temperature;BME280_humidity;BME280_pressure;Samples;Min_cycle;Max_cycle;Signal;HPM_P1;HPM_P2
2024/03/21 00:02:16;;;;;;;21.98;15.05;;;13.50;99.90;;;;;;5086201;28;20021;-72
2024/03/21 00:04:41;;;;;;;26.40;15.13;;;13.50;99.90;;;;;;5087030;28;20024;-71
2024/03/21 00:07:07;;;;;;;17.75;11.88;;;13.50;99.90;;;;;;5086329;28;20119;-72
2024/03/21 00:09:33;;;;;;;19.65;11.02;;;13.50;99.90;;;;;;5087556;28;20082;-72
2024/03/21 00:11:59;;;;;;;20.45;10.88;;;13.50;99.90;;;;;;5085445;28;20055;-72
2024/03/21 00:14:25;;;;;;;21.17;11.93;;;13.40;99.90;;;;;;5086538;28;20779;-72
2024/03/21 00:16:51;;;;;;;19.73;12.80;;;13.40;99.90;;;;;;5087099;28;20379;-72
2024/03/21 00:19:18;;;;;;;23.42;14.70;;;13.40;99.90;;;;;;5086296;28;20027;-72
2024/03/21 00:21:45;;;;;;;17.80;11.57;;;13.40;99.90;;;;;;5085278;28;20020;-72
2024/03/21 00:24:11;;;;;;;17.17;11.18;;;13.40;99.90;;;;;;5085888;28;20027;-72
2024/03/21 00:26:36;;;;;;;22.08;12.18;;;13.40;99.90;;;;;;5087298;28;20108;-72
2024/03/21 00:29:04;;;;;;;20.13;14.93;;;13.40;99.90;;;;;;5087267;28;20032;-72
2024/03/21 00:31:31;;;;;;;17.25;12.60;;;13.40;99.90;;;;;;5086451;28;20059;-72
2024/03/21 00:33:56;;;;;;;18.00;11.95;;;13.30;99.90;;;;;;5086716;28;20521;-72
2024/03/21 00:36:22;;;;;;;17.83;11.93;;;13.30;99.90;;;;;;5087756;28;20057;-72
2024/03/21 00:38:47;;;;;;;15.43;12.15;;;13.20;99.90;;;;;;5087153;28;20020;-72
2024/03/21 00:41:13;;;;;;;19.25;13.25;;;13.20;99.90;;;;;;5086790;28;20053;-71
2024/03/21 00:43:38;;;;;;;16.27;12.15;;;13.10;99.90;;;;;;5087390;28;20024;-72
2024/03/21 00:46:04;;;;;;;21.25;13.82;;;13.10;99.90;;;;;;5086034;28;20440;-72
2024/03/21 00:48:29;;;;;;;18.75;12.35;;;13.10;99.90;;;;;;5086718;28;20478;-72
2024/03/21 00:50:54;;;;;;;18.73;11.90;;;13.00;99.90;;;;;;5086608;28;20141;-72
2024/03/21 00:53:20;;;;;;;20.45;14.10;;;13.00;99.90;;;;;;5086709;28;20028;-72
2024/03/21 00:55:45;;;;;;;18.08;11.63;;;12.90;99.90;;;;;;5087108;28;20120;-72
2024/03/21 00:58:11;;;;;;;21.35;12.90;;;12.80;99.90;;;;;;5086396;28;20636;-72
2024/03/21 01:00:36;;;;;;;18.42;11.93;;;12.80;99.90;;;;;;5086547;28;20035;-71
2024/03/21 01:03:02;;;;;;;17.92;12.05;;;12.70;99.90;;;;;;5086354;28;20506;-71
2024/03/21 01:05:28;;;;;;;22.38;12.35;;;12.70;99.90;;;;;;5086538;28;20028;-71
2024/03/21 01:07:54;;;;;;;;;;;12.70;99.90;;;;;;5086219;28;20035;-71
2024/03/21 01:10:19;;;;;;;16.02;11.70;;;12.70;99.90;;;;;;5086365;28;19915;-72
2024/03/21 01:12:45;;;;;;;14.57;11.32;;;12.70;99.90;;;;;;5087398;28;20031;-71
2024/03/21 01:15:11;;;;;;;13.20;11.27;;;12.70;99.90;;;;;;5085970;28;20032;-71
2024/03/21 01:17:37;;;;;;;16.75;11.52;;;12.70;99.90;;;;;;5086704;28;20035;-71
2024/03/21 01:20:04;;;;;;;18.02;11.00;;;12.70;99.90;;;;;;5086150;28;20016;-71
2024/03/21 01:22:29;;;;;;;16.10;11.45;;;12.70;99.90;;;;;;5086548;28;20101;-71
2024/03/21 01:24:54;;;;;;;15.02;11.07;;;12.60;99.90;;;;;;5086706;28;20031;-71
2024/03/21 01:27:20;;;;;;;;;;;12.60;99.90;;;;;;5086627;28;20028;-71
2024/03/21 01:29:45;;;;;;;19.45;9.32;;;12.60;99.90;;;;;;5086157;28;19994;-71
2024/03/21 01:32:11;;;;;;;17.75;10.35;;;12.60;99.90;;;;;;5086452;28;20032;-71
2024/03/21 01:34:37;;;;;;;22.70;12.23;;;12.50;99.90;;;;;;5087127;28;20032;-72
2024/03/21 01:37:03;;;;;;;22.13;10.80;;;12.40;99.90;;;;;;5086136;28;20482;-72
2024/03/21 01:39:28;;;;;;;20.65;10.65;;;12.40;99.90;;;;;;5085960;28;20020;-72
2024/03/21 01:41:54;;;;;;;;;;;12.40;99.90;;;;;;5086378;28;20367;-71
2024/03/21 01:44:19;;;;;;;17.17;11.15;;;12.40;99.90;;;;;;5086209;28;19913;-71
2024/03/21 01:46:46;;;;;;;13.02;8.88;;;12.40;99.90;;;;;;5090167;28;20035;-71
2024/03/21 01:49:12;;;;;;;16.55;10.23;;;12.40;99.90;;;;;;5090160;28;20051;-71
2024/03/21 01:51:39;;;;;;;22.80;11.10;;;12.40;99.90;;;;;;5089063;28;20078;-71
2024/03/21 01:54:06;;;;;;;14.90;9.50;;;12.40;99.90;;;;;;5089860;28;20039;-71
2024/03/21 01:56:31;;;;;;;14.48;10.35;;;12.40;99.90;;;;;;5089871;28;20028;-71
2024/03/21 01:58:57;;;;;;;17.80;10.68;;;12.30;99.90;;;;;;5090790;28;20020;-71
2024/03/21 02:01:28;;;;;;;13.75;10.40;;;12.30;99.90;;;;;;5089175;28;20030;-71
2024/03/21 02:03:59;;;;;;;20.65;10.52;;;12.20;99.90;;;;;;5090625;28;20032;-72
2024/03/21 02:06:26;;;;;;;13.88;10.57;;;12.20;99.90;;;;;;5089297;28;20055;-72
2024/03/21 02:08:53;;;;;;;19.17;11.25;;;12.10;99.90;;;;;;5089956;28;20035;-72
2024/03/21 02:11:19;;;;;;;20.70;10.93;;;12.10;99.90;;;;;;5089103;28;20024;-71
2024/03/21 02:13:46;;;;;;;16.15;9.80;;;12.10;99.90;;;;;;5088733;28;20043;-71
2024/03/21 02:16:12;;;;;;;15.15;10.68;;;12.10;99.90;;;;;;5089269;28;20028;-71
2024/03/21 02:18:37;;;;;;;15.57;10.68;;;12.00;99.90;;;;;;5091083;28;20028;-71
2024/03/21 02:22:35;;;;;;;15.75;10.98;;;12.00;99.90;;;;;;5091220;28;20012;-71
2024/03/21 02:23:52;;;;;;;15.30;10.88;;;12.00;99.90;;;;;;5090079;28;20067;-71
2024/03/21 02:26:18;;;;;;;14.80;10.23;;;11.90;99.90;;;;;;5089811;28;20949;-71
2024/03/21 02:28:43;;;;;;;;;;;11.90;99.90;;;;;;5091179;28;20028;-71
2024/03/21 02:31:09;;;;;;;16.55;10.20;;;11.90;99.90;;;;;;5089116;28;19931;-71
2024/03/21 02:33:34;;;;;;;17.13;12.02;;;12.00;99.90;;;;;;5090544;28;20036;-71
2024/03/21 02:36:00;;;;;;;;;;;12.00;99.90;;;;;;5091056;28;20047;-71
2024/03/21 02:38:26;;;;;;;13.82;9.55;;;12.00;99.90;;;;;;5090633;28;19919;-71
2024/03/21 02:40:51;;;;;;;18.17;10.52;;;12.00;99.90;;;;;;5090049;28;20103;-71
2024/03/21 02:43:17;;;;;;;15.75;9.63;;;12.00;99.90;;;;;;5089800;28;20020;-71
2024/03/21 02:45:42;;;;;;;14.07;10.45;;;12.00;99.90;;;;;;5090267;28;20701;-71
2024/03/21 02:48:08;;;;;;;18.90;10.23;;;12.00;99.90;;;;;;5090540;28;20027;-71
2024/03/21 02:50:34;;;;;;;16.02;11.50;;;12.00;99.90;;;;;;5089631;28;20024;-72
2024/03/21 02:53:00;;;;;;;18.00;10.40;;;11.90;99.90;;;;;;5089419;28;20024;-72
2024/03/21 02:55:26;;;;;;;17.40;11.63;;;12.00;99.90;;;;;;5089536;28;20028;-71
2024/03/21 02:57:51;;;;;;;20.58;11.57;;;12.00;99.90;;;;;;5089514;28;20031;-71
2024/03/21 03:00:17;;;;;;;19.00;11.27;;;12.00;99.90;;;;;;5089571;28;20032;-71
2024/03/21 03:02:43;;;;;;;17.70;11.48;;;12.00;99.90;;;;;;5089454;28;20390;-71
2024/03/21 03:05:11;;;;;;;14.63;10.25;;;12.00;99.90;;;;;;5089474;28;20028;-71
2024/03/21 03:07:37;;;;;;;20.38;11.52;;;12.00;99.90;;;;;;5089902;28;20028;-72
2024/03/21 03:10:02;;;;;;;17.88;10.15;;;11.90;99.90;;;;;;5089722;28;20055;-72
2024/03/21 03:12:28;;;;;;;15.70;10.02;;;11.90;99.90;;;;;;5089342;28;20735;-72
2024/03/21 03:14:53;;;;;;;;;;;11.90;99.90;;;;;;5090653;28;20063;-72
2024/03/21 03:17:19;;;;;;;16.27;10.07;;;11.90;99.90;;;;;;5089131;28;20014;-72
2024/03/21 03:19:45;;;;;;;13.63;10.65;;;11.90;99.90;;;;;;5089644;28;20036;-71
2024/03/21 03:22:10;;;;;;;17.58;11.63;;;11.90;99.90;;;;;;5088558;28;20150;-71
2024/03/21 03:24:35;;;;;;;12.98;9.23;;;11.90;99.90;;;;;;5089555;28;20043;-71
2024/03/21 03:27:01;;;;;;;14.48;9.73;;;11.90;99.90;;;;;;5088986;28;20024;-71
2024/03/21 03:29:26;;;;;;;12.55;9.27;;;11.90;99.90;;;;;;5089171;28;20606;-71
2024/03/21 03:32:00;;;;;;;15.95;9.50;;;11.90;99.90;;;;;;5088696;28;20028;-71
2024/03/21 03:37:13;;;;;;;13.95;9.60;;;11.90;99.90;;;;;;5088810;28;20042;-71
2024/03/21 03:39:39;;;;;;;19.33;10.23;;;11.90;99.90;;;;;;5088840;28;20028;-71
2024/03/21 03:42:04;;;;;;;;;;;11.90;99.90;;;;;;5088841;28;20481;-71
2024/03/21 03:44:30;;;;;;;14.90;8.82;;;12.00;99.90;;;;;;5089143;28;19951;-71
2024/03/21 03:46:55;;;;;;;15.20;8.40;;;12.00;99.90;;;;;;5089339;28;20035;-71
2024/03/21 03:49:21;;;;;;;11.95;9.50;;;11.90;99.90;;;;;;5087824;28;20076;-71
2024/03/21 03:51:46;;;;;;;;;;;11.90;99.90;;;;;;5088709;28;20028;-71
2024/03/21 03:54:12;;;;;;;19.95;10.18;;;11.80;99.90;;;;;;5088796;28;20284;-71
2024/03/21 03:56:37;;;;;;;;;;;11.90;99.90;;;;;;5089777;28;20517;-71
2024/03/21 03:59:03;;;;;;;17.10;9.52;;;11.80;99.90;;;;;;5088998;28;20050;-71
2024/03/21 04:01:28;;;;;;;12.85;8.60;;;11.80;99.90;;;;;;5086446;28;20032;-71
2024/03/21 04:03:54;;;;;;;;;;;11.80;99.90;;;;;;5088628;28;20115;-71
2024/03/21 04:06:20;;;;;;;16.25;8.10;;;11.80;99.90;;;;;;5088112;28;19908;-71
2024/03/21 04:08:45;;;;;;;;;;;11.80;99.90;;;;;;5087485;28;20031;-72
2024/03/21 04:11:14;;;;;;;14.57;9.27;;;11.80;99.90;;;;;;5088736;28;19964;-71
2024/03/21 04:13:40;;;;;;;14.77;9.02;;;11.80;99.90;;;;;;5087645;28;20027;-71
2024/03/21 04:16:08;;;;;;;;;;;11.70;99.90;;;;;;5088298;28;20028;-71
2024/03/21 04:18:33;;;;;;;15.45;8.98;;;11.70;99.90;;;;;;5086299;28;20003;-71
2024/03/21 04:20:59;;;;;;;;;;;11.80;99.90;;;;;;5088489;28;20498;-71
2024/03/21 04:23:24;;;;;;;10.82;8.60;;;11.80;99.90;;;;;;5086476;28;19922;-71
2024/03/21 04:25:50;;;;;;;;;;;11.80;99.90;;;;;;5088180;28;20538;-72
2024/03/21 04:28:15;;;;;;;16.00;8.55;;;11.80;99.90;;;;;;5087222;28;19919;-72
2024/03/21 04:30:40;;;;;;;;;;;11.80;99.90;;;;;;5089104;28;20028;-71
2024/03/21 04:33:06;;;;;;;15.50;9.57;;;11.70;99.90;;;;;;5088154;28;19912;-71
2024/03/21 04:35:31;;;;;;;;;;;11.80;99.90;;;;;;5088662;28;20753;-71
2024/03/21 04:37:57;;;;;;;11.05;7.80;;;11.70;99.90;;;;;;5088315;28;19950;-71
2024/03/21 04:40:23;;;;;;;;;;;11.80;99.90;;;;;;5088384;28;20198;-71
2024/03/21 04:42:51;;;;;;;16.25;8.27;;;11.70;99.90;;;;;;5088754;28;19911;-71
2024/03/21 04:45:18;;;;;;;16.25;9.27;;;11.80;99.90;;;;;;5087889;28;20028;-71
2024/03/21 04:47:44;;;;;;;23.33;12.95;;;11.70;99.90;;;;;;5088086;28;20490;-71
2024/03/21 04:50:10;;;;;;;15.98;10.27;;;11.70;99.90;;;;;;5086668;28;20035;-71
2024/03/21 04:52:35;;;;;;;;;;;11.70;99.90;;;;;;5087548;28;20775;-71
2024/03/21 04:55:01;;;;;;;14.82;8.70;;;11.60;99.90;;;;;;5088456;28;19965;-71
2024/03/21 04:57:27;;;;;;;13.77;8.45;;;11.60;99.90;;;;;;5087917;28;20498;-71
2024/03/21 04:59:53;;;;;;;;;;;11.60;99.90;;;;;;5089091;28;20103;-71
2024/03/21 05:02:19;;;;;;;14.90;9.80;;;11.60;99.90;;;;;;5086154;28;19908;-71
2024/03/21 05:04:44;;;;;;;13.48;9.25;;;11.60;99.90;;;;;;5088227;28;20359;-71
2024/03/21 05:07:10;;;;;;;14.25;8.88;;;11.60;99.90;;;;;;5087063;28;20020;-71
2024/03/21 05:09:35;;;;;;;17.63;9.35;;;11.50;99.90;;;;;;5087711;28;20085;-72
2024/03/21 05:12:01;;;;;;;16.25;9.45;;;11.40;99.90;;;;;;5087053;28;20026;-72
2024/03/21 05:14:30;;;;;;;;;;;11.50;99.90;;;;;;5087857;28;20020;-71
2024/03/21 05:16:55;;;;;;;14.02;8.77;;;11.40;99.90;;;;;;5088068;28;20003;-71
2024/03/21 05:19:21;;;;;;;;;;;11.40;99.90;;;;;;5089780;28;20091;-71
2024/03/21 05:21:46;;;;;;;14.90;8.15;;;11.40;99.90;;;;;;5092271;28;19965;-71
2024/03/21 05:24:11;;;;;;;;;;;11.30;99.90;;;;;;5092315;28;20085;-71
2024/03/21 05:26:37;;;;;;;13.25;8.70;;;11.30;99.90;;;;;;5092401;28;19915;-71
2024/03/21 05:29:02;;;;;;;;;;;11.30;99.90;;;;;;5092543;28;20030;-72
2024/03/21 05:31:28;;;;;;;12.10;9.80;;;11.30;99.90;;;;;;5091125;28;19915;-71
2024/03/21 05:33:54;;;;;;;17.40;11.20;;;11.30;99.90;;;;;;5092133;28;20028;-71
2024/03/21 05:36:21;;;;;;;15.60;10.68;;;11.30;99.90;;;;;;5088967;28;20447;-72
2024/03/21 05:38:47;;;;;;;21.30;12.13;;;11.30;99.90;;;;;;5091919;28;20035;-72
2024/03/21 05:41:13;;;;;;;19.00;12.55;;;11.30;99.90;;;;;;5090127;28;20554;-73
2024/03/21 05:43:38;;;;;;;;;;;11.30;99.90;;;;;;5091986;28;20046;-72
2024/03/21 05:46:04;;;;;;;19.42;12.30;;;11.30;99.90;;;;;;5090959;28;19918;-72
2024/03/21 05:48:32;;;;;;;;;;;11.30;99.90;;;;;;5090984;28;20501;-71
2024/03/21 05:50:59;;;;;;;21.02;13.93;;;11.30;99.90;;;;;;5091312;28;20032;-71
2024/03/21 05:53:25;;;;;;;22.00;15.93;;;11.30;99.90;;;;;;5090543;28;20028;-71
2024/03/21 05:55:57;;;;;;;;;;;11.30;99.90;;;;;;5091071;28;20020;-71
2024/03/21 05:58:22;;;;;;;26.83;16.13;;;11.30;99.90;;;;;;5089777;28;20520;-71
2024/03/21 06:01:03;;;;;;;;;;;11.30;99.90;;;;;;5090407;28;20051;-71
2024/03/21 06:03:32;;;;;;;26.80;17.63;;;11.30;99.90;;;;;;5090402;28;19995;-71
2024/03/21 06:05:57;;;;;;;27.90;17.23;;;11.30;99.90;;;;;;5090746;28;20020;-71
2024/03/21 06:08:23;;;;;;;;;;;11.30;99.90;;;;;;5090875;28;20424;-71
2024/03/21 06:10:48;;;;;;;25.13;15.27;;;11.30;99.90;;;;;;5091038;28;19916;-71
2024/03/21 06:13:14;;;;;;;;;;;11.30;99.90;;;;;;5090790;28;20020;-71
2024/03/21 06:15:40;;;;;;;29.83;19.35;;;11.30;99.90;;;;;;5090827;28;20423;-71
2024/03/21 06:18:07;;;;;;;28.23;18.50;;;11.30;99.90;;;;;;5090686;28;20182;-71
2024/03/21 06:20:32;;;;;;;34.10;19.73;;;11.30;99.90;;;;;;5090103;28;20107;-71
2024/03/21 06:22:58;;;;;;;;;;;11.30;99.90;;;;;;5091691;28;20411;-71
2024/03/21 06:25:23;;;;;;;29.63;18.75;;;11.30;99.90;;;;;;5090393;28;19908;-71
2024/03/21 06:27:49;;;;;;;;;;;11.30;99.90;;;;;;5090996;28;20382;-71
2024/03/21 06:30:15;;;;;;;28.70;18.83;;;11.30;99.90;;;;;;5089063;28;19972;-71
2024/03/21 06:32:41;;;;;;;28.23;20.27;;;11.30;99.90;;;;;;5089843;28;20103;-71
2024/03/21 06:35:07;;;;;;;31.20;19.92;;;11.30;99.90;;;;;;5091123;28;20024;-73
2024/03/21 06:37:33;;;;;;;;;;;11.30;99.90;;;;;;5090971;28;20050;-73
2024/03/21 06:39:59;;;;;;;30.80;20.20;;;11.30;99.90;;;;;;5090354;28;19931;-72
2024/03/21 06:42:25;;;;;;;32.60;22.33;;;11.40;99.90;;;;;;5089333;28;20112;-71
2024/03/21 06:44:50;;;;;;;;;;;11.40;99.90;;;;;;5090403;28;20103;-71
2024/03/21 06:47:16;;;;;;;32.58;21.58;;;11.40;99.90;;;;;;5088806;28;19912;-72
2024/03/21 06:49:42;;;;;;;33.00;22.50;;;11.40;99.90;;;;;;5089232;28;20035;-73
2024/03/21 06:52:07;;;;;;;;;;;11.40;99.90;;;;;;5088427;28;20032;-72
2024/03/21 06:54:33;;;;;;;31.15;21.42;;;11.40;99.90;;;;;;5088321;28;20431;-71
2024/03/21 06:56:58;;;;;;;35.30;21.27;;;11.40;99.90;;;;;;5089807;28;20028;-70
2024/03/21 06:59:25;;;;;;;29.60;21.27;;;11.40;99.90;;;;;;5089417;28;20032;-71
2024/03/21 07:01:51;;;;;;;30.35;21.88;;;11.40;99.90;;;;;;5088490;28;20478;-71
2024/03/21 07:04:16;;;;;;;;;;;11.50;99.90;;;;;;5089535;28;20115;-71
2024/03/21 07:06:42;;;;;;;25.45;18.85;;;11.50;99.90;;;;;;5087417;28;20355;-71
2024/03/21 07:09:07;;;;;;;;;;;11.40;99.90;;;;;;5086559;28;20031;-72
2024/03/21 07:11:33;;;;;;;28.25;19.40;;;11.50;99.90;;;;;;5086839;28;20704;-72
2024/03/21 07:13:59;;;;;;;;;;;11.50;99.90;;;;;;5088404;28;20027;-72
2024/03/21 07:16:25;;;;;;;34.35;20.45;;;11.50;99.90;;;;;;5084993;28;19922;-72
2024/03/21 07:18:50;;;;;;;;;;;11.60;99.90;;;;;;5089077;28;20028;-71
2024/03/21 07:21:16;;;;;;;29.13;21.00;;;11.60;99.90;;;;;;5087600;28;19919;-72
2024/03/21 07:23:41;;;;;;;36.90;23.63;;;11.70;99.90;;;;;;5087620;28;20131;-71
2024/03/21 07:26:07;;;;;;;;;;;11.70;99.90;;;;;;5087957;28;20093;-72
2024/03/21 07:28:33;;;;;;;29.90;22.38;;;11.80;99.90;;;;;;5087418;28;19973;-72
2024/03/21 07:30:58;;;;;;;;;;;11.80;99.90;;;;;;5088953;28;20454;-72
2024/03/21 07:33:24;;;;;;;30.38;22.48;;;11.80;99.90;;;;;;5087670;28;19912;-72
2024/03/21 07:35:57;;;;;;;38.05;24.42;;;11.80;99.90;;;;;;5087797;28;20020;-71
2024/03/21 07:38:23;;;;;;;32.30;22.90;;;11.90;99.90;;;;;;5086294;28;20031;-72
2024/03/21 07:40:59;;;;;;;38.33;25.55;;;11.90;99.90;;;;;;5087731;28;20438;-72
2024/03/21 07:43:25;;;;;;;36.95;24.23;;;11.90;99.90;;;;;;5087079;28;20302;-72
2024/03/21 07:45:51;;;;;;;35.58;24.58;;;11.90;99.90;;;;;;5087736;28;20024;-72
2024/03/21 07:48:17;;;;;;;;;;;11.90;99.90;;;;;;5089082;28;20125;-72
2024/03/21 07:50:42;;;;;;;36.28;24.40;;;11.90;99.90;;;;;;5086115;28;19964;-72
2024/03/21 07:53:08;;;;;;;43.80;24.90;;;11.90;99.90;;;;;;5086911;28;20104;-72
2024/03/21 07:55:33;;;;;;;;;;;12.00;99.90;;;;;;5087352;28;20485;-72
2024/03/21 07:58:04;;;;;;;39.55;25.55;;;12.00;99.90;;;;;;5087423;28;20592;-71
2024/03/21 08:00:30;;;;;;;40.60;26.00;;;12.00;99.90;;;;;;5087574;28;20028;-71
2024/03/21 08:02:56;;;;;;;35.78;24.13;;;12.00;99.90;;;;;;5087599;28;20019;-72
2024/03/21 08:05:21;;;;;;;;;;;12.00;99.90;;;;;;5086575;28;20043;-71
2024/03/21 08:07:47;;;;;;;36.85;23.65;;;12.00;99.90;;;;;;5087662;28;19904;-71
2024/03/21 08:10:13;;;;;;;36.38;25.80;;;12.00;99.90;;;;;;5088298;28;20106;-70
2024/03/21 08:12:39;;;;;;;41.30;26.25;;;12.00;99.90;;;;;;5087305;28;20024;-71
2024/03/21 08:15:04;;;;;;;;;;;12.00;99.90;;;;;;5087736;28;20028;-71
2024/03/21 08:17:30;;;;;;;30.40;22.10;;;12.00;99.90;;;;;;5087702;28;19951;-71
2024/03/21 08:19:56;;;;;;;;;;;12.00;99.90;;;;;;5086839;28;20051;-71
2024/03/21 08:22:22;;;;;;;34.42;23.17;;;12.00;99.90;;;;;;5086666;28;20002;-71
2024/03/21 08:24:48;;;;;;;;;;;12.00;99.90;;;;;;5088730;28;20454;-71
2024/03/21 08:27:17;;;;;;;38.67;24.23;;;12.00;99.90;;;;;;5087404;28;20353;-71
2024/03/21 08:29:43;;;;;;;40.30;25.70;;;11.90;99.90;;;;;;5086923;28;20039;-70
2024/03/21 08:32:09;;;;;;;;;;;11.90;99.90;;;;;;5088990;28;20032;-71
2024/03/21 08:34:34;;;;;;;33.13;22.90;;;11.80;99.90;;;;;;5087663;28;20006;-71
2024/03/21 08:37:00;;;;;;;;;;;11.80;99.90;;;;;;5087409;28;20031;-71
2024/03/21 08:39:25;;;;;;;29.77;21.20;;;11.80;99.90;;;;;;5087105;28;19998;-71
2024/03/21 08:41:51;;;;;;;;;;;11.80;99.90;;;;;;5087078;28;20111;-71
2024/03/21 08:44:16;;;;;;;30.10;20.02;;;11.70;99.90;;;;;;5087228;28;20338;-71
2024/03/21 08:46:41;;;;;;;;;;;11.80;99.90;;;;;;5086552;28;20512;-71
2024/03/21 08:49:07;;;;;;;27.80;19.10;;;11.90;99.90;;;;;;5087481;28;19916;-71
2024/03/21 08:51:32;;;;;;;;;;;11.90;99.90;;;;;;5087128;28;20097;-71
2024/03/21 08:53:58;;;;;;;27.30;18.38;;;12.10;99.90;;;;;;5086201;28;20377;-71
2024/03/21 08:56:24;;;;;;;25.25;18.52;;;12.10;99.90;;;;;;5086061;28;20028;-71
2024/03/21 08:58:49;;;;;;;22.50;18.00;;;12.20;99.90;;;;;;5087424;28;20103;-71
2024/03/21 09:01:14;;;;;;;;;;;12.30;99.90;;;;;;5087620;28;20116;-71
2024/03/21 09:03:40;;;;;;;14.38;9.35;;;12.30;99.90;;;;;;5086943;28;19920;-71
2024/03/21 09:06:05;;;;;;;;;;;12.40;99.90;;;;;;5087660;28;20025;-71
2024/03/21 09:08:34;;;;;;;9.98;7.75;;;12.50;99.90;;;;;;5087115;28;20362;-71
2024/03/21 09:11:02;;;;;;;11.95;7.97;;;12.70;99.90;;;;;;5087832;28;20490;-71
2024/03/21 09:13:30;;;;;;;5.82;5.03;;;12.90;99.90;;;;;;5088184;28;20070;-71
2024/03/21 09:15:56;;;;;;;6.40;5.35;;;12.90;99.90;;;;;;5086261;28;20067;-71
2024/03/21 09:18:21;;;;;;;10.20;6.03;;;12.80;99.90;;;;;;5086100;28;20509;-71
2024/03/21 09:20:47;;;;;;;;;;;12.70;99.90;;;;;;5087846;28;20051;-71
2024/03/21 09:23:13;;;;;;;10.13;7.60;;;12.40;99.90;;;;;;5087562;28;20503;-71
2024/03/21 09:25:39;;;;;;;12.32;8.20;;;11.80;99.90;;;;;;5087932;28;20035;-71
2024/03/21 09:28:04;;;;;;;;;;;11.50;99.90;;;;;;5088134;28;20490;-71
2024/03/21 09:30:30;;;;;;;10.07;7.93;;;11.20;99.90;;;;;;5085567;28;19912;-71
2024/03/21 09:32:55;;;;;;;;;;;11.00;99.90;;;;;;5086652;28;20034;-71
2024/03/21 09:35:21;;;;;;;10.60;8.05;;;10.90;99.90;;;;;;5086934;28;19969;-71
2024/03/21 09:37:46;;;;;;;15.80;8.85;;;10.80;99.90;;;;;;5087181;28;20123;-71
2024/03/21 09:40:13;;;;;;;11.98;7.90;;;10.70;99.90;;;;;;5087854;28;20661;-71
2024/03/21 09:42:39;;;;;;;12.13;7.80;;;10.70;99.90;;;;;;5086730;28;20028;-71
2024/03/21 09:45:09;;;;;;;;;;;10.60;99.90;;;;;;5087088;28;20020;-71
2024/03/21 09:47:37;;;;;;;7.15;5.70;;;10.70;99.90;;;;;;5087862;28;19954;-71
2024/03/21 09:50:02;;;;;;;8.88;5.68;;;10.70;99.90;;;;;;5086437;28;20541;-73
2024/03/21 09:52:29;;;;;;;;;;;10.70;99.90;;;;;;5086617;28;20081;-74
2024/03/21 09:54:55;;;;;;;11.07;5.22;;;10.80;99.90;;;;;;5087630;28;19944;-73
2024/03/21 09:57:21;;;;;;;6.95;4.57;;;10.80;99.90;;;;;;5086868;28;20031;-71
2024/03/21 09:59:47;;;;;;;;;;;10.90;99.90;;;;;;5085622;28;20020;-71
2024/03/21 10:02:12;;;;;;;6.03;4.53;;;11.00;99.90;;;;;;5087002;28;19912;-70
2024/03/21 10:04:42;;;;;;;;;;;11.20;99.90;;;;;;5087627;28;20111;-71
2024/03/21 10:07:21;;;;;;;7.38;4.72;;;11.30;99.90;;;;;;5090828;28;20045;-71
2024/03/21 10:09:53;;;;;;;7.75;4.72;;;11.50;99.90;;;;;;5090235;28;20027;-73
2024/03/21 10:12:19;;;;;;;9.35;5.40;;;11.60;99.90;;;;;;5091076;28;20024;-74
2024/03/21 10:14:44;;;;;;;;;;;11.70;99.90;;;;;;5091552;28;20077;-74
2024/03/21 10:17:10;;;;;;;8.52;6.35;;;11.90;99.90;;;;;;5090629;28;19920;-71
2024/03/21 10:19:36;;;;;;;10.70;5.32;;;11.90;99.90;;;;;;5090965;28;20028;-74
2024/03/21 10:24:32;;;;;;;8.55;6.20;;;11.90;99.90;;;;;;5076148;28;19967;-69
2024/03/21 10:26:57;;;;;;;;;;;11.80;99.90;;;;;;5072180;28;20079;-70
2024/03/21 10:29:23;;;;;;;9.05;6.57;;;11.80;99.90;;;;;;5076158;28;19916;-69
2024/03/21 10:31:50;;;;;;;8.63;6.82;;;11.70;99.90;;;;;;5075955;28;20057;-70
2024/03/21 10:34:19;;;;;;;10.20;6.85;;;11.50;99.90;;;;;;5074710;28;20039;-70
2024/03/21 10:36:45;;;;;;;8.93;6.50;;;11.40;99.90;;;;;;5077011;28;20094;-70
2024/03/21 10:39:11;;;;;;;;;;;11.20;99.90;;;;;;5081341;28;20478;-70
2024/03/21 10:41:40;;;;;;;11.90;8.40;;;11.00;99.90;;;;;;5077070;28;19915;-70
2024/03/21 10:44:10;;;;;;;14.40;9.07;;;10.80;99.90;;;;;;5078416;28;20066;-70
2024/03/21 10:46:37;;;;;;;13.50;9.85;;;10.70;99.90;;;;;;5078910;28;20036;-70
2024/03/21 10:49:03;;;;;;;16.90;9.80;;;10.70;99.90;;;;;;5078774;28;20728;-70
2024/03/21 10:51:28;;;;;;;;;;;10.70;99.90;;;;;;5079991;28;20173;-71
2024/03/21 10:53:59;;;;;;;13.68;11.13;;;10.70;99.90;;;;;;5078521;28;19916;-70
2024/03/21 10:56:36;;;;;;;15.90;11.48;;;10.60;99.90;;;;;;5077264;28;20054;-70
2024/03/21 10:59:02;;;;;;;17.25;11.05;;;10.50;99.90;;;;;;5075384;28;20017;-70
2024/03/21 11:01:34;;;;;;;;;;;10.50;99.90;;;;;;5076366;28;20106;-70
2024/03/21 11:04:18;;;;;;;12.43;8.77;;;10.40;99.90;;;;;;5076931;28;20412;-70
2024/03/21 11:06:47;;;;;;;13.63;8.68;;;10.40;99.90;;;;;;5077309;28;20028;-72
2024/03/21 11:09:15;;;;;;;12.65;8.88;;;10.30;99.90;;;;;;5077887;28;20146;-70
2024/03/21 11:11:41;;;;;;;13.77;7.78;;;10.30;99.90;;;;;;5078130;28;20024;-70
2024/03/21 11:14:09;;;;;;;8.75;6.47;;;10.20;99.90;;;;;;5074671;28;20055;-72
2024/03/21 11:16:36;;;;;;;9.65;5.55;;;10.10;99.90;;;;;;5074861;28;20529;-71
2024/03/21 11:19:02;;;;;;;11.20;5.13;;;10.10;99.90;;;;;;5074541;28;20028;-71
2024/03/21 11:21:28;;;;;;;8.20;4.90;;;10.10;99.90;;;;;;5071067;28;20029;-71
2024/03/21 11:23:53;;;;;;;;;;;10.10;99.90;;;;;;5075460;28;20028;-70
2024/03/21 11:26:19;;;;;;;6.88;4.57;;;10.20;99.90;;;;;;5073252;28;20366;-71
2024/03/21 11:28:45;;;;;;;;;;;10.20;99.90;;;;;;5078633;28;20039;-73
2024/03/21 11:31:24;;;;;;;10.00;4.37;;;10.20;99.90;;;;;;5078704;28;19916;-71
2024/03/21 11:33:51;;;;;;;9.18;3.50;;;10.10;99.90;;;;;;5075251;28;20486;-71
2024/03/21 11:36:18;;;;;;;10.68;3.42;;;10.10;99.90;;;;;;5076184;28;20127;-71
2024/03/21 11:38:45;;;;;;;6.43;3.47;;;10.00;99.90;;;;;;5073807;28;20036;-73
2024/03/21 11:41:25;;;;;;;6.15;3.72;;;10.00;99.90;;;;;;5075634;28;20482;-71
2024/03/21 11:43:54;;;;;;;11.90;4.82;;;10.10;99.90;;;;;;5079337;28;20108;-71
2024/03/21 11:46:21;;;;;;;13.27;5.32;;;10.20;99.90;;;;;;5077455;28;20060;-71
2024/03/21 11:49:06;;;;;;;8.10;4.28;;;10.30;99.90;;;;;;5075992;28;20474;-71
2024/03/21 11:51:33;;;;;;;11.15;4.13;;;10.30;99.90;;;;;;5074876;28;20065;-71
2024/03/21 11:54:05;;;;;;;13.32;5.20;;;10.40;99.90;;;;;;5079107;28;20398;-71
2024/03/21 11:56:37;;;;;;;6.85;3.47;;;10.40;99.90;;;;;;5074224;28;20024;-71
2024/03/21 11:59:03;;;;;;;5.82;3.90;;;10.40;99.90;;;;;;5074288;28;20114;-71
2024/03/21 12:01:29;;;;;;;16.92;4.45;;;10.50;99.90;;;;;;5076707;28;20051;-71
2024/03/21 12:03:55;;;;;;;;;;;10.40;99.90;;;;;;5077921;28;20032;-71
2024/03/21 12:06:21;;;;;;;13.68;5.55;;;10.40;99.90;;;;;;5071142;28;19914;-71
2024/03/21 12:08:51;;;;;;;;;;;10.40;99.90;;;;;;5073126;28;20554;-72
2024/03/21 12:11:18;;;;;;;12.98;4.80;;;10.40;99.90;;;;;;5070605;28;19938;-71
2024/03/21 12:13:44;;;;;;;5.45;3.92;;;10.30;99.90;;;;;;5072514;28;20032;-72
2024/03/21 12:16:11;;;;;;;;;;;10.30;99.90;;;;;;5079684;28;20379;-73
2024/03/21 12:18:37;;;;;;;11.23;4.70;;;10.30;99.90;;;;;;5075298;28;19915;-73
2024/03/21 12:21:03;;;;;;;;;;;10.30;99.90;;;;;;5073178;28;20440;-72
2024/03/21 12:23:28;;;;;;;7.65;4.38;;;10.20;99.90;;;;;;5074616;28;20397;-72
2024/03/21 12:25:54;;;;;;;;;;;10.10;99.90;;;;;;5073178;28;20036;-72
2024/03/21 12:28:20;;;;;;;14.65;6.00;;;10.10;99.90;;;;;;5073378;28;20035;-72
2024/03/21 12:30:45;;;;;;;;;;;10.10;99.90;;;;;;5074823;28;20374;-70
2024/03/21 12:33:11;;;;;;;10.20;5.70;;;10.00;99.90;;;;;;5074849;28;20374;-72
2024/03/21 12:35:36;;;;;;;;;;;10.00;99.90;;;;;;5078343;28;20032;-72
2024/03/21 12:38:02;;;;;;;11.75;5.82;;;9.90;99.90;;;;;;5078392;28;19923;-71
2024/03/21 12:40:28;;;;;;;;;;;9.90;99.90;;;;;;5072442;28;20021;-73
2024/03/21 12:42:54;;;;;;;14.95;6.25;;;9.90;99.90;;;;;;5073962;28;19998;-72
2024/03/21 12:45:19;;;;;;;;;;;9.90;99.90;;;;;;5072097;28;20048;-71
2024/03/21 12:47:44;;;;;;;9.27;5.82;;;10.00;99.90;;;;;;5072200;28;19912;-72
2024/03/21 12:50:10;;;;;;;;;;;10.00;99.90;;;;;;5077793;28;20417;-72
2024/03/21 12:52:36;;;;;;;13.88;5.93;;;9.90;99.90;;;;;;5073129;28;19912;-72
2024/03/21 12:55:03;;;;;;;12.30;5.95;;;9.90;99.90;;;;;;5071853;28;20039;-72
2024/03/21 12:57:29;;;;;;;11.65;6.97;;;9.90;99.90;;;;;;5075685;28;20032;-72